Main page
METAR-TAF:

METAR-TAF

Airports :

Recife/Guararapes–Gilberto Freyre International Airport

Recife, Pernambuco, Brazil

latitude: 08-08S, longitude: 034-55W, elevation: 19 m

Current weather observation

The report was made 23 minutes ago, at 23:00 UTC
Wind 12 kt from the Southeast
Temperature 25°C
Humidity 89%
Pressure 1017 hPa
Visibility: 6000 m
Broken clouds at a height of 1500 ft
Overcast at a height of 2300 ft
light rain showers

METAR: SBRF 162300Z 14012KT 6000 -SHRA BKN015 OVC023 25/23 Q1017

Time: 20:23 (23:23 UTC)

Forecast

The report was made 8 hours and 23 minutes ago, at 15:00 UTC
Forecast valid from 16 at 18 UTC to 17 at 18 UTC
Wind 10 kt from the Southeast
Visibility 10 km or more
Scattered clouds at a height of 2300 ft

TAF: SBRF 161500Z 1618/1718 14010KT 9999 SCT023 TN26/1705Z TX29/1715Z RMK PCH

Weather observations and forecasts of more than 4000 airports (METAR and TAF reports).

The available stations are represented by yellow and red dots on the map.

Hover mouse over dot to see the name of the station.

Then click to see weather observations and forecasts.

To change the map : click on the green buttons with a black cross to zoom in, on the green button with a dash to zoom out, or on the green arrows for adjacent maps.


METAR-TAF: